Time;durP1;ratioP1;P1;durP2;ratioP2;P2;SDS_P1;SDS_P2;PMS_P1;PMS_P2;Temp;Humidity;BMP_temperature;BMP_pressure;BME280_temperature;BME280_humidity;BME280_pressure;Samples;Min_cycle;Max_cycle;Signal;HPM_P1;HPM_P2
2021/12/08 00:17:46;;;;;;;28.70;17.27;;;;;;;-5.24;100.00;100558.88;21062849;27;20575;-60
2021/12/08 00:27:51;;;;;;;29.40;18.10;;;;;;;-5.32;100.00;100550.19;21058238;27;20300;-63
2021/12/08 00:37:57;;;;;;;31.53;19.40;;;;;;;-5.33;100.00;100558.84;21057480;27;20558;-62
2021/12/08 00:48:02;;;;;;;30.90;19.60;;;;;;;-5.37;100.00;100557.09;21056426;27;20625;-70
2021/12/08 01:18:01;;;;;;;23.87;16.97;;;;;;;-5.54;100.00;100562.22;20975254;27;20561;-61
2021/12/08 01:28:04;;;;;;;28.67;18.13;;;;;;;-5.57;100.00;100555.28;20974015;28;20218;-59
2021/12/08 01:38:08;;;;;;;26.77;18.17;;;;;;;-5.53;100.00;100549.22;20972191;28;20243;-60
2021/12/08 01:48:13;;;;;;;29.70;18.60;;;;;;;-5.57;100.00;100523.22;20972811;28;20223;-62
2021/12/08 01:58:18;;;;;;;28.17;17.47;;;;;;;-5.54;100.00;100511.09;20971948;28;20242;-68
2021/12/08 02:18:18;;;;;;;28.83;18.27;;;;;;;-5.30;100.00;100479.09;21140744;27;20566;-63
2021/12/08 02:28:21;;;;;;;30.80;20.53;;;;;;;-5.23;100.00;100498.19;21141938;27;20323;-70
2021/12/08 02:48:45;;;;;;;28.07;18.60;;;;;;;-5.62;100.00;100471.19;21137858;27;20229;-69
2021/12/08 02:58:49;;;;;;;41.93;23.73;;;;;;;-5.67;100.00;100491.09;21139604;27;20230;-71
2021/12/08 03:08:52;;;;;;;31.93;21.07;;;;;;;-5.61;100.00;100492.88;21138530;27;20230;-70
2021/12/08 03:18:55;;;;;;;27.73;18.87;;;;;;;-5.52;100.00;100492.91;21136961;27;20304;-69
2021/12/08 03:29:04;;;;;;;26.17;17.83;;;;;;;-5.31;100.00;100487.75;21089598;28;20256;-68
2021/12/08 03:39:08;;;;;;;24.23;17.00;;;;;;;-5.13;100.00;100481.72;20995466;28;20261;-71
2021/12/08 03:49:14;;;;;;;22.43;16.47;;;;;;;-5.08;100.00;100474.81;20994600;28;20250;-69
2021/12/08 03:59:17;;;;;;;22.77;15.70;;;;;;;-5.08;100.00;100469.63;20994919;28;20237;-69
2021/12/08 04:09:29;;;;;;;23.63;15.80;;;;;;;-5.07;100.00;100447.91;21072561;28;20234;-67
2021/12/08 04:19:33;;;;;;;25.03;15.60;;;;;;;-5.30;100.00;100439.22;21077198;28;20292;-71
2021/12/08 04:39:47;;;;;;;25.13;17.07;;;;;;;-5.35;100.00;100425.34;21057325;27;21086;-72
2021/12/08 05:21:04;;;;;;;25.13;17.93;;;;;;;-5.30;100.00;100431.41;21065996;27;21084;-71
2021/12/08 05:31:14;;;;;;;24.03;16.60;;;;;;;-5.61;100.00;100439.16;21079688;27;20637;-71
2021/12/08 05:41:23;;;;;;;22.03;15.60;;;;;;;-5.53;100.00;100440.03;20976220;28;20307;-72
2021/12/08 05:51:36;;;;;;;25.57;16.57;;;;;;;-5.51;100.00;100427.91;20972250;28;20302;-68
2021/12/08 06:01:48;;;;;;;26.27;17.00;;;;;;;-5.53;100.00;100414.03;20971916;28;20776;-70
2021/12/08 06:11:52;;;;;;;26.37;18.67;;;;;;;-5.68;100.00;100400.16;20954366;28;20268;-70
2021/12/08 06:31:57;;;;;;;24.93;17.17;;;;;;;-6.67;100.00;100446.44;20894444;27;20575;-69
2021/12/08 06:52:10;;;;;;;24.37;17.73;;;;;;;-6.76;100.00;100487.91;21059667;27;20530;-59
2021/12/08 07:12:21;;;;;;;23.80;15.57;;;;;;;-6.45;100.00;100491.56;21071226;27;20625;-70
2021/12/08 07:22:35;;;;;;;23.40;15.90;;;;;;;-6.54;100.00;100495.00;21058221;27;20598;-70
2021/12/08 07:32:41;;;;;;;24.17;15.03;;;;;;;-6.56;100.00;100481.13;21055578;27;20245;-69
2021/12/08 07:52:46;;;;;;;35.30;20.13;;;;;;;-6.21;100.00;100486.53;21096599;27;20571;-64
2021/12/08 08:02:50;;;;;;;20.90;14.37;;;;;;;-6.27;100.00;100495.16;21058026;28;20226;-68
2021/12/08 08:12:59;;;;;;;22.60;14.67;;;;;;;-6.20;100.00;100483.97;21055918;28;20222;-67
2021/12/08 08:23:03;;;;;;;16.80;12.83;;;;;;;-6.08;100.00;100497.88;20980351;28;20239;-70
2021/12/08 08:33:07;;;;;;;20.03;12.80;;;;;;;-5.95;100.00;100484.09;21046731;28;20318;-69
2021/12/08 08:53:10;;;;;;;22.17;14.60;;;;;;;-5.60;100.00;100438.28;21058616;27;21116;-69
2021/12/08 09:03:19;;;;;;;23.87;15.27;;;;;;;-5.45;100.00;100427.94;21056916;27;20215;-64
2021/12/08 09:13:38;;;;;;;27.60;15.27;;;;;;;-5.24;100.00;100395.03;21057458;27;20351;-71
2021/12/08 09:24:14;;;;;;;26.67;16.03;;;;;;;-5.04;100.00;100406.28;21056377;27;20241;-70
2021/12/08 09:44:21;;;;;;;24.63;15.83;;;;;;;-4.51;100.00;100392.38;20988054;27;20582;-62
2021/12/08 09:54:25;;;;;;;23.97;16.03;;;;;;;-4.49;100.00;100357.66;20974508;28;20560;-69
2021/12/08 10:04:28;;;;;;;25.40;16.83;;;;;;;-4.53;100.00;100347.22;20972357;28;20230;-59
2021/12/08 10:14:32;;;;;;;27.27;17.17;;;;;;;-4.42;100.00;100350.66;20972796;28;20611;-59
2021/12/08 10:24:35;;;;;;;23.57;16.00;;;;;;;-4.40;100.00;100356.75;20972026;28;20270;-59
2021/12/08 10:34:52;;;;;;;25.13;15.60;;;;;;;-4.13;100.00;100377.50;20970956;28;20561;-60
2021/12/08 10:45:09;;;;;;;23.80;15.20;;;;;;;-4.01;100.00;100346.16;20970105;28;20231;-68
2021/12/08 10:55:19;;;;;;;25.80;16.50;;;;;;;-4.06;100.00;100353.13;20992484;28;20230;-68
2021/12/08 11:05:25;;;;;;;26.83;16.37;;;;;;;-4.02;100.00;100334.00;20995212;28;20218;-68
2021/12/08 11:15:30;;;;;;;23.70;16.03;;;;;;;-4.04;100.00;100340.09;20995973;28;20232;-70
2021/12/08 11:25:41;;;;;;;23.93;16.37;;;;;;;-3.97;100.00;100322.66;20995404;28;20746;-71
2021/12/08 11:35:45;;;;;;;29.70;17.10;;;;;;;-3.58;100.00;100319.81;20976415;28;20267;-71
2021/12/08 11:45:49;;;;;;;23.33;15.67;;;;;;;-3.32;100.00;100286.59;20959239;28;20990;-68
2021/12/08 11:55:52;;;;;;;25.17;16.23;;;;;;;-3.20;100.00;100279.53;20992623;28;21060;-69
2021/12/08 12:05:56;;;;;;;28.47;18.47;;;;;;;-3.19;100.00;100276.03;20991004;28;20322;-69
2021/12/08 12:26:15;;;;;;;19.90;13.70;;;;;;;-3.09;100.00;100278.53;20902306;27;20914;-69
2021/12/08 12:36:28;;;;;;;24.27;14.63;;;;;;;-2.99;100.00;100271.47;20973011;28;20227;-70
2021/12/08 12:46:31;;;;;;;18.63;12.70;;;;;;;-2.89;100.00;100280.94;20972931;28;20587;-58
2021/12/08 12:56:34;;;;;;;17.67;12.43;;;;;;;-2.81;100.00;100279.13;20972817;28;20344;-60
2021/12/08 13:06:46;;;;;;;21.43;15.13;;;;;;;-2.86;100.00;100267.00;20971926;28;20315;-65
2021/12/08 13:17:08;;;;;;;25.43;16.73;;;;;;;-2.75;100.00;100263.38;20970384;28;20254;-59
2021/12/08 13:27:16;;;;;;;22.93;13.93;;;;;;;-2.86;100.00;100269.59;20969596;28;20237;-64
2021/12/08 13:37:29;;;;;;;21.53;13.97;;;;;;;-3.09;100.00;100282.88;20913029;28;20231;-71
2021/12/08 13:47:38;;;;;;;24.87;16.87;;;;;;;-3.13;100.00;100283.78;20895808;28;20223;-59
2021/12/08 13:58:04;;;;;;;19.97;13.10;;;;;;;-3.59;100.00;100271.16;20911686;28;20746;-59
2021/12/08 14:08:14;;;;;;;21.97;14.93;;;;;;;-4.20;100.00;100278.50;20900534;28;20246;-71
2021/12/08 14:18:34;;;;;;;26.13;17.07;;;;;;;-4.60;100.00;100259.59;20908111;28;20315;-72
2021/12/08 14:38:38;;;;;;;19.63;11.97;;;;;;;-5.27;100.00;100244.16;21065663;27;20593;-59
2021/12/08 14:48:46;;;;;;;22.93;12.93;;;;;;;-5.49;100.00;100253.75;21057591;27;20218;-59
2021/12/08 14:58:56;;;;;;;22.33;12.70;;;;;;;-5.71;100.00;100247.69;21053924;27;20230;-65
2021/12/08 15:09:00;;;;;;;20.83;12.67;;;;;;;-5.90;100.00;100245.97;20999169;27;21016;-60
2021/12/08 15:29:05;;;;;;;39.13;22.43;;;;;;;-5.89;100.00;100247.69;20987011;27;20333;-65
2021/12/08 15:49:08;;;;;;;45.07;22.67;;;;;;;-4.99;100.00;100258.88;21164965;27;20646;-68
2021/12/08 15:59:23;;;;;;;34.43;21.33;;;;;;;-4.64;100.00;100257.88;21152657;27;20313;-66
2021/12/08 16:09:34;;;;;;;30.40;18.37;;;;;;;-4.36;100.00;100259.50;21158293;27;20222;-58
2021/12/08 16:19:40;;;;;;;22.37;14.50;;;;;;;-4.11;100.00;100255.91;21137393;28;20244;-57
2021/12/08 16:29:44;;;;;;;22.90;14.33;;;;;;;-4.01;100.00;100254.09;21136086;28;20283;-59
2021/12/08 16:39:58;;;;;;;20.53;13.37;;;;;;;-4.07;100.00;100241.94;21135706;28;20229;-57
2021/12/08 17:09:52;;;;;;;22.37;14.43;;;;;;;-4.35;100.00;100209.97;21060021;27;20572;-73
2021/12/08 17:19:57;;;;;;;23.90;16.03;;;;;;;-4.35;100.00;100203.94;21038123;27;20226;-71
2021/12/08 17:30:01;;;;;;;24.30;15.77;;;;;;;-4.35;100.00;100199.56;21055959;27;20340;-73
2021/12/08 17:40:06;;;;;;;25.33;15.87;;;;;;;-4.24;100.00;100190.84;21138889;27;20641;-69
2021/12/08 17:50:09;;;;;;;22.70;15.00;;;;;;;-4.21;100.00;100191.66;21139140;27;20651;-73
2021/12/08 18:00:17;;;;;;;24.23;14.37;;;;;;;-4.25;100.00;100186.50;21134311;27;20265;-71
2021/12/08 18:10:22;;;;;;;22.43;13.57;;;;;;;-4.33;100.00;100183.94;21137953;27;20237;-73
2021/12/08 18:20:27;;;;;;;23.33;13.97;;;;;;;-4.28;100.00;100200.41;21084545;27;20845;-58
2021/12/08 18:30:31;;;;;;;21.93;13.93;;;;;;;-4.14;100.00;100190.78;21075465;28;20613;-65
2021/12/08 19:00:29;;;;;;;21.97;14.37;;;;;;;-3.73;100.00;100176.53;20986788;27;20563;-59
2021/12/08 19:10:34;;;;;;;16.77;12.13;;;;;;;-3.82;100.00;100179.22;21050811;27;20224;-66
2021/12/08 19:20:37;;;;;;;20.17;12.57;;;;;;;-3.85;100.00;100153.16;21084087;27;20219;-69
2021/12/08 19:30:42;;;;;;;23.77;14.50;;;;;;;-4.06;100.00;100165.50;21053248;27;20230;-68
2021/12/08 19:40:45;;;;;;;17.63;11.33;;;;;;;-4.05;100.00;100141.19;21053307;27;20255;-59
2021/12/08 19:50:53;;;;;;;22.40;12.77;;;;;;;-3.87;100.00;100144.53;21053994;27;20325;-68
2021/12/08 20:00:57;;;;;;;20.10;12.60;;;;;;;-3.63;100.00;100146.91;21012865;27;20230;-66
2021/12/08 20:11:01;;;;;;;24.27;14.67;;;;;;;-3.53;100.00;100135.50;20870976;28;20244;-60
2021/12/08 20:21:06;;;;;;;22.47;12.70;;;;;;;-3.59;100.00;100119.03;20974895;28;20234;-67
2021/12/08 20:31:13;;;;;;;24.17;13.07;;;;;;;-3.77;100.00;100122.72;20991502;28;20709;-59
2021/12/08 20:41:17;;;;;;;24.17;13.30;;;;;;;-3.87;100.00;100098.47;20994153;28;20239;-69
2021/12/08 20:51:22;;;;;;;26.17;13.90;;;;;;;-3.70;100.00;100111.31;20994010;28;20237;-66
2021/12/08 21:01:35;;;;;;;20.00;12.93;;;;;;;-3.63;100.00;100092.16;20993801;28;20222;-70
2021/12/08 21:11:40;;;;;;;24.00;13.23;;;;;;;-3.55;100.00;100100.75;20991072;28;20578;-70
2021/12/08 21:21:43;;;;;;;22.73;12.73;;;;;;;-3.59;100.00;100082.53;20990881;28;20626;-71
2021/12/08 21:31:47;;;;;;;24.57;12.87;;;;;;;-3.59;100.00;100077.31;20991322;28;20230;-68
2021/12/08 21:41:50;;;;;;;20.83;12.03;;;;;;;-3.58;100.00;100085.13;20989248;28;20229;-63
2021/12/08 21:51:54;;;;;;;18.10;10.83;;;;;;;-3.45;100.00;100088.47;20989516;28;20247;-71
2021/12/08 22:01:57;;;;;;;16.93;10.63;;;;;;;-3.47;100.00;100104.13;20987397;28;20222;-65
2021/12/08 22:12:02;;;;;;;18.90;10.67;;;;;;;-3.37;100.00;100099.66;20988086;28;20601;-63
2021/12/08 22:22:06;;;;;;;21.83;12.27;;;;;;;-3.42;100.00;100076.25;20984345;28;20296;-60
2021/12/08 22:32:09;;;;;;;17.90;10.33;;;;;;;-3.44;100.00;100067.59;20986529;28;20227;-67
2021/12/08 22:42:13;;;;;;;16.40;9.97;;;;;;;-3.36;100.00;100064.88;20986789;28;20226;-71
2021/12/08 22:52:18;;;;;;;13.63;9.17;;;;;;;-3.36;100.00;100059.66;20967881;28;20297;-67
2021/12/08 23:02:22;;;;;;;12.97;8.57;;;;;;;-3.36;100.00;100052.69;20985705;28;20693;-71
2021/12/08 23:12:25;;;;;;;13.17;8.77;;;;;;;-3.32;100.00;100051.78;20985094;28;20244;-65
2021/12/08 23:22:29;;;;;;;19.13;11.03;;;;;;;-3.49;100.00;100051.13;20984640;28;20291;-70
2021/12/08 23:32:33;;;;;;;17.00;11.20;;;;;;;-3.41;100.00;100054.50;20983316;28;20235;-62
2021/12/08 23:52:34;;;;;;;14.07;9.70;;;;;;;-3.20;100.00;100036.84;20900102;28;20559;-72
